Kahuta Weather



Kahuta's Current Weather

Temprature 31.37o clear sky

clear sky

Rain: 0 %

Min Temprature31o
Max Temprature31.67o
Humidity79
Wind Speed4.1 m/h
Sun Rise05:27:22
Sun Set18:55:23
Current Time: 13-Aug-2020 19:26:52
Lat/Lon: 33.59, 73.39




Kahuta's Geo Location



Kahuta's Weather Forecast

Time Overall Temp Min Temp Max Temp Humidity Wind Speed Rain
13-Aug-2020 (Thu)
20:00:00 clear sky 30.340 29.260 30.340 73 2.65 m/h 0 %
23:00:00 light rain 27.940 26.990 27.940 80 2.44 m/h 174 %
14-Aug-2020 (Fri)
02:00:00 light rain 25.980 25.610 25.980 85 2.35 m/h 213 %
05:00:00 moderate rain 25.270 25.220 25.270 86 2.67 m/h 398 %
08:00:00 light rain 27.910 27.910 27.910 76 2.26 m/h 119 %
11:00:00 moderate rain 30.370 30.370 30.370 67 3.27 m/h 301 %
14:00:00 light rain 32.770 32.770 32.770 56 2.28 m/h 25 %
17:00:00 light rain 32.160 32.160 32.160 59 1.61 m/h 152 %
20:00:00 few clouds 28.110 28.110 28.110 71 2.76 m/h 0 %
23:00:00 light rain 27.500 27.500 27.500 73 1.98 m/h 10 %
15-Aug-2020 (Sat)
02:00:00 light rain 25.810 25.810 25.810 81 2.43 m/h 283 %
05:00:00 light rain 25.380 25.380 25.380 82 1.58 m/h 245 %
08:00:00 light rain 28.850 28.850 28.850 71 1.71 m/h 17 %
11:00:00 moderate rain 31.270 31.270 31.270 64 2.76 m/h 594 %
14:00:00 light rain 33.490 33.490 33.490 55 2.34 m/h 30 %
17:00:00 few clouds 33.120 33.120 33.120 57 1.57 m/h 0 %
20:00:00 clear sky 29.210 29.210 29.210 67 2.15 m/h 0 %
23:00:00 clear sky 28.150 28.150 28.150 70 2.06 m/h 0 %
16-Aug-2020 (Sun)
02:00:00 light rain 26.950 26.950 26.950 75 2.22 m/h 36 %
05:00:00 light rain 26.340 26.340 26.340 76 1.66 m/h 16 %
08:00:00 light rain 29.550 29.550 29.550 68 1.77 m/h 11 %
11:00:00 moderate rain 31.820 31.820 31.820 63 2.34 m/h 344 %
14:00:00 moderate rain 32.990 32.990 32.990 59 2.64 m/h 784 %
17:00:00 light rain 32.590 32.590 32.590 61 1.79 m/h 26 %
20:00:00 clear sky 29.130 29.130 29.130 70 2.57 m/h 0 %
23:00:00 clear sky 28.280 28.280 28.280 72 2.15 m/h 0 %
17-Aug-2020 (Mon)
02:00:00 clear sky 27.750 27.750 27.750 74 1.92 m/h 0 %
05:00:00 clear sky 27.100 27.100 27.100 77 1.38 m/h 0 %
08:00:00 light rain 28.170 28.170 28.170 78 3.06 m/h 139 %
11:00:00 heavy intensity rain 30.260 30.260 30.260 73 3.64 m/h 1,269 %
14:00:00 heavy intensity rain 31.260 31.260 31.260 69 3.29 m/h 1,533 %
17:00:00 moderate rain 30.920 30.920 30.920 69 2.32 m/h 488 %
20:00:00 scattered clouds 28.130 28.130 28.130 75 2.26 m/h 0 %
23:00:00 few clouds 27.420 27.420 27.420 77 1.9 m/h 0 %
18-Aug-2020 (Tue)
02:00:00 clear sky 26.830 26.830 26.830 78 1.88 m/h 0 %
05:00:00 light rain 26.160 26.160 26.160 82 2.48 m/h 177 %
08:00:00 moderate rain 28.170 28.170 28.170 79 2.53 m/h 868 %
11:00:00 moderate rain 30.860 30.860 30.860 71 3.15 m/h 936 %
14:00:00 moderate rain 32.090 32.090 32.090 65 3.47 m/h 748 %
17:00:00 light rain 30.970 30.970 30.970 70 3.35 m/h 142 %

Famous Cities (60)